createdAt,value
2019-04-14T00:01:47.725Z,85.35
2019-04-14T00:04:20.433Z,86.68
2019-04-14T00:06:50.470Z,86.87
2019-04-14T00:09:20.650Z,86.05
2019-04-14T00:11:50.382Z,86.14
2019-04-14T00:14:20.665Z,86.04
2019-04-14T00:16:49.457Z,85.59
2019-04-14T00:19:18.119Z,85.34
2019-04-14T00:21:47.624Z,86.03
2019-04-14T00:24:18.341Z,85.70
2019-04-14T00:26:47.146Z,85.85
2019-04-14T00:29:15.818Z,85.35
2019-04-14T00:31:45.875Z,85.62
2019-04-14T00:34:35.330Z,86.02
2019-04-14T00:37:29.504Z,86.45
2019-04-14T00:40:02.585Z,86.76
2019-04-14T00:42:40.883Z,86.45
2019-04-14T00:45:17.653Z,85.63
2019-04-14T00:48:01.093Z,86.16
2019-04-14T00:50:26.111Z,85.19
2019-04-14T00:52:56.665Z,84.70
2019-04-14T00:55:31.487Z,84.84
2019-04-14T00:58:04.259Z,85.37
2019-04-14T01:00:35.102Z,85.22
2019-04-14T01:03:04.821Z,85.58
2019-04-14T01:05:54.778Z,85.08
2019-04-14T01:08:24.832Z,85.06
2019-04-14T01:10:54.015Z,84.97
2019-04-14T01:13:22.740Z,85.03
2019-04-14T01:15:58.616Z,85.49
2019-04-14T01:18:21.795Z,86.64
2019-04-14T01:20:51.415Z,85.76
2019-04-14T01:23:21.443Z,86.92
2019-04-14T01:25:50.328Z,86.72
2019-04-14T01:28:20.113Z,87.56
2019-04-14T01:30:50.034Z,87.65
2019-04-14T01:33:18.869Z,87.25
2019-04-14T01:35:48.796Z,87.51
2019-04-14T01:38:17.646Z,87.63
2019-04-14T01:40:46.691Z,88.01
2019-04-14T01:43:16.657Z,86.88
2019-04-14T01:45:58.188Z,87.22
2019-04-14T01:48:17.058Z,86.42
2019-04-14T01:51:11.326Z,86.35
2019-04-14T01:54:01.802Z,86.61
2019-04-14T01:56:55.915Z,88.42
2019-04-14T01:59:24.645Z,86.88
2019-04-14T02:01:54.294Z,87.17
2019-04-14T02:04:22.985Z,87.61
2019-04-14T02:06:52.727Z,87.47
2019-04-14T02:09:21.509Z,87.88
2019-04-14T02:11:51.025Z,88.30
2019-04-14T02:14:21.097Z,88.20
2019-04-14T02:16:54.137Z,88.42
2019-04-14T02:19:20.309Z,88.43
2019-04-14T02:21:49.891Z,88.69
2019-04-14T02:24:19.896Z,88.46
2019-04-14T02:26:48.656Z,88.40
2019-04-14T02:29:17.317Z,87.94
2019-04-14T02:32:23.663Z,88.09
2019-04-14T02:37:19.532Z,88.17
2019-04-14T02:39:48.218Z,88.30
2019-04-14T02:44:43.592Z,88.90
2019-04-14T02:47:36.338Z,89.00
2019-04-14T02:49:50.599Z,89.58
2019-04-14T02:54:51.643Z,90.00
2019-04-14T02:57:17.338Z,90.08
2019-04-14T03:04:49.144Z,90.39
2019-04-14T03:07:21.858Z,91.02
2019-04-14T03:09:48.435Z,91.09
2019-04-14T03:12:19.250Z,90.84
2019-04-14T03:17:31.040Z,91.38
2019-04-14T03:20:14.096Z,91.34
2019-04-14T03:23:13.840Z,91.29
2019-04-14T03:25:38.784Z,91.75
2019-04-14T03:28:28.316Z,92.00
2019-04-14T03:31:51.786Z,91.87
2019-04-14T03:43:41.396Z,92.18
2019-04-14T03:51:28.083Z,92.04
2019-04-14T03:53:47.247Z,92.65
2019-04-14T03:56:29.653Z,92.37
2019-04-14T03:58:58.319Z,92.52
2019-04-14T04:01:27.984Z,92.80
2019-04-14T04:03:56.736Z,93.08
2019-04-14T04:06:25.389Z,93.08
2019-04-14T04:08:55.210Z,92.81
2019-04-14T04:11:23.919Z,92.63
2019-04-14T04:13:52.602Z,92.94
2019-04-14T04:16:29.006Z,92.86
2019-04-14T04:19:07.390Z,92.73
2019-04-14T04:21:50.936Z,92.54
2019-04-14T04:24:45.481Z,92.60
2019-04-14T04:27:33.320Z,92.78
2019-04-14T04:30:08.166Z,93.20
2019-04-14T04:32:45.050Z,93.20
2019-04-14T04:35:28.140Z,93.53
2019-04-14T04:38:09.538Z,93.83
2019-04-14T04:40:39.634Z,93.78
2019-04-14T04:43:08.397Z,93.86
2019-04-14T04:45:37.054Z,93.80
2019-04-14T04:48:06.700Z,93.66
2019-04-14T04:50:36.731Z,93.56
2019-04-14T04:53:06.848Z,93.53
2019-04-14T04:55:35.658Z,93.49
2019-04-14T04:58:05.555Z,93.50
2019-04-14T05:00:35.295Z,93.42
2019-04-14T05:03:04.081Z,93.26
2019-04-14T05:06:09.316Z,93.04
2019-04-14T05:08:39.712Z,92.91
2019-04-14T05:11:31.636Z,92.95
2019-04-14T05:14:02.850Z,92.81
2019-04-14T05:16:32.448Z,92.77
2019-04-14T05:19:15.907Z,92.60
2019-04-14T05:21:32.150Z,92.19
2019-04-14T05:24:00.934Z,92.00
2019-04-14T05:26:30.815Z,91.81
2019-04-14T05:28:59.683Z,91.78
2019-04-14T05:31:29.406Z,91.60
2019-04-14T05:33:59.943Z,91.04
2019-04-14T05:36:28.689Z,91.11
2019-04-14T05:38:58.123Z,91.09
2019-04-14T05:41:26.806Z,90.98
2019-04-14T05:43:58.234Z,90.68
2019-04-14T05:46:25.880Z,90.43
2019-04-14T05:48:55.664Z,90.25
2019-04-14T05:51:24.843Z,90.27
2019-04-14T05:53:54.508Z,90.45
2019-04-14T05:56:23.253Z,90.70
2019-04-14T05:58:51.887Z,90.11
2019-04-14T06:01:20.568Z,90.13
2019-04-14T06:03:49.677Z,90.23
2019-04-14T06:06:18.404Z,89.09
2019-04-14T06:08:47.063Z,88.57
2019-04-14T06:11:15.725Z,89.26
2019-04-14T06:13:44.410Z,89.98
2019-04-14T06:16:13.118Z,89.70
2019-04-14T06:18:41.778Z,88.57
2019-04-14T06:21:10.436Z,87.04
2019-04-14T06:23:41.288Z,84.84
2019-04-14T06:26:09.952Z,85.13
2019-04-14T06:28:38.610Z,83.81
2019-04-14T06:31:38.299Z,82.99
2019-04-14T06:34:17.358Z,83.55
2019-04-14T06:37:03.962Z,82.59
2019-04-14T06:39:35.101Z,83.45
2019-04-14T06:42:04.083Z,84.29
2019-04-14T06:44:32.761Z,83.51
2019-04-14T06:47:01.428Z,83.51
2019-04-14T06:49:30.081Z,84.08
2019-04-14T06:51:58.834Z,83.88
2019-04-14T06:54:27.512Z,83.08
2019-04-14T06:56:56.201Z,82.78
2019-04-14T06:59:24.867Z,83.04
2019-04-14T07:01:53.527Z,82.03
2019-04-14T07:04:22.213Z,80.65
2019-04-14T07:06:51.479Z,81.09
2019-04-14T07:09:20.306Z,78.43
2019-04-14T07:11:49.005Z,78.72
2019-04-14T07:14:17.661Z,79.20
2019-04-14T07:16:46.371Z,78.01
2019-04-14T07:19:15.042Z,78.09
2019-04-14T07:21:43.680Z,76.78
2019-04-14T07:24:12.369Z,76.85
2019-04-14T07:26:41.187Z,74.58
2019-04-14T07:29:09.856Z,72.44
2019-04-14T07:32:06.598Z,72.93
2019-04-14T07:34:54.788Z,71.86
2019-04-14T07:37:45.536Z,71.03
2019-04-14T07:40:24.158Z,69.54
2019-04-14T07:42:59.025Z,67.99
2019-04-14T07:45:45.806Z,66.65
2019-04-14T07:48:34.695Z,67.32
2019-04-14T07:51:23.625Z,63.99
2019-04-14T07:54:11.358Z,65.71
2019-04-14T07:56:49.876Z,65.65
2019-04-14T07:59:31.702Z,63.61
2019-04-14T08:02:06.090Z,63.48
2019-04-14T08:04:37.778Z,64.17
2019-04-14T08:07:06.510Z,63.90
2019-04-14T08:09:35.164Z,63.59
2019-04-14T08:12:03.859Z,62.95
2019-04-14T08:14:32.542Z,63.52
2019-04-14T08:17:01.246Z,64.65
2019-04-14T08:19:29.897Z,63.58
2019-04-14T08:21:58.552Z,61.38
2019-04-14T08:24:27.242Z,63.03
2019-04-14T08:26:55.978Z,64.28
2019-04-14T08:29:24.634Z,64.04
2019-04-14T08:31:53.338Z,63.67
2019-04-14T08:34:21.984Z,61.90
2019-04-14T08:36:50.711Z,61.75
2019-04-14T08:39:19.392Z,59.70
2019-04-14T08:42:05.370Z,60.00
2019-04-14T08:44:53.232Z,60.85
2019-04-14T08:47:53.276Z,59.21
2019-04-14T08:50:38.924Z,57.16
2019-04-14T08:53:02.682Z,56.55
2019-04-14T08:55:40.081Z,55.66
2019-04-14T08:58:30.826Z,54.54
2019-04-14T09:01:04.811Z,52.67
2019-04-14T09:04:07.579Z,52.69
2019-04-14T09:06:53.169Z,51.02
2019-04-14T09:09:25.835Z,51.11
2019-04-14T09:11:58.228Z,53.31
2019-04-14T09:14:26.950Z,52.36
2019-04-14T09:16:55.627Z,51.89
2019-04-14T09:19:24.583Z,53.46
2019-04-14T09:21:53.276Z,50.59
2019-04-14T09:24:21.952Z,47.58
2019-04-14T09:26:50.611Z,46.51
2019-04-14T09:29:19.297Z,44.79
2019-04-14T09:31:48.002Z,41.31
2019-04-14T09:34:16.671Z,38.79
2019-04-14T09:36:45.327Z,38.76
2019-04-14T09:39:14.024Z,37.89
2019-04-14T09:41:42.696Z,36.26
2019-04-14T09:44:11.360Z,36.87
2019-04-14T09:46:40.054Z,38.42
2019-04-14T09:49:08.716Z,39.33
2019-04-14T09:51:37.381Z,40.46
2019-04-14T09:54:06.155Z,44.16
2019-04-14T09:56:34.842Z,47.11
2019-04-14T09:59:03.847Z,46.70
2019-04-14T10:01:32.624Z,45.21
2019-04-14T10:04:01.284Z,42.74
2019-04-14T10:06:30.030Z,41.79
2019-04-14T10:08:58.724Z,40.19
2019-04-14T10:11:27.484Z,40.15
2019-04-14T10:13:56.152Z,44.01
2019-04-14T10:16:24.839Z,44.82
2019-04-14T10:18:53.560Z,46.60
2019-04-14T10:21:22.228Z,46.59
2019-04-14T10:23:50.897Z,47.55
2019-04-14T10:26:19.597Z,46.87
2019-04-14T10:28:50.749Z,45.60
2019-04-14T10:31:19.046Z,44.77
2019-04-14T10:33:47.741Z,45.06
2019-04-14T10:36:16.415Z,44.91
2019-04-14T10:38:45.110Z,45.62
2019-04-14T10:41:13.774Z,45.58
2019-04-14T10:43:42.445Z,46.60
2019-04-14T10:46:11.139Z,47.38
2019-04-14T10:48:39.818Z,47.00
2019-04-14T10:51:08.512Z,48.79
2019-04-14T10:53:37.178Z,50.15
2019-04-14T10:56:05.933Z,51.11
2019-04-14T10:58:34.608Z,50.21
2019-04-14T11:01:03.271Z,47.85
2019-04-14T11:03:31.982Z,47.13
2019-04-14T11:06:06.050Z,46.65
2019-04-14T11:08:34.752Z,46.50
2019-04-14T11:11:03.535Z,47.01
2019-04-14T11:13:32.198Z,48.11
2019-04-14T11:16:00.956Z,47.46
2019-04-14T11:18:29.619Z,48.93
2019-04-14T11:20:58.281Z,48.56
2019-04-14T11:23:26.970Z,48.93
2019-04-14T11:25:55.638Z,49.29
2019-04-14T11:28:24.297Z,48.69
2019-04-14T11:30:52.985Z,46.62
2019-04-14T11:33:46.975Z,44.80
2019-04-14T11:36:33.552Z,43.82
2019-04-14T11:39:08.159Z,45.35
2019-04-14T11:41:36.865Z,47.86
2019-04-14T11:44:05.760Z,47.00
2019-04-14T11:46:34.375Z,47.86
2019-04-14T11:49:03.149Z,45.99
2019-04-14T11:51:31.815Z,44.22
2019-04-14T11:54:00.686Z,44.26
2019-04-14T11:56:29.411Z,47.58
2019-04-14T11:58:58.075Z,46.64
2019-04-14T12:01:44.590Z,48.72
2019-04-14T12:04:24.406Z,47.50
2019-04-14T12:06:59.707Z,47.11
2019-04-14T12:09:31.240Z,48.03
2019-04-14T12:11:59.933Z,48.76
2019-04-14T12:14:28.937Z,48.10
2019-04-14T12:16:57.633Z,49.09
2019-04-14T12:19:26.329Z,49.74
2019-04-14T12:22:07.445Z,50.29
2019-04-14T12:24:25.409Z,49.26
2019-04-14T12:26:54.073Z,50.95
2019-04-14T12:29:23.645Z,52.23
2019-04-14T12:31:53.078Z,51.13
2019-04-14T12:34:21.854Z,51.95
2019-04-14T12:36:50.504Z,52.10
2019-04-14T12:39:23.265Z,53.16
2019-04-14T12:42:11.494Z,53.15
2019-04-14T12:44:52.875Z,53.63
2019-04-14T12:47:41.441Z,55.39
2019-04-14T12:50:18.078Z,55.01
2019-04-14T12:52:46.761Z,56.65
2019-04-14T12:55:15.514Z,55.66
2019-04-14T12:57:53.164Z,55.91
2019-04-14T13:00:50.071Z,57.07
2019-04-14T13:03:19.035Z,57.44
2019-04-14T13:05:47.693Z,57.29
2019-04-14T13:08:16.380Z,56.79
2019-04-14T13:10:45.482Z,57.14
2019-04-14T13:13:14.150Z,57.52
2019-04-14T13:15:42.832Z,56.77
2019-04-14T13:18:11.517Z,58.34
2019-04-14T13:20:40.197Z,61.06
2019-04-14T13:23:08.858Z,63.87
2019-04-14T13:25:37.556Z,64.25
2019-04-14T13:28:06.304Z,65.64
2019-04-14T13:30:37.427Z,65.47
2019-04-14T13:33:06.202Z,66.62
2019-04-14T13:35:34.867Z,66.87
2019-04-14T13:38:03.598Z,68.56
2019-04-14T13:40:32.290Z,65.29
2019-04-14T13:43:01.273Z,66.87
2019-04-14T13:45:29.938Z,67.64
2019-04-14T13:47:58.607Z,68.39
2019-04-14T13:50:27.355Z,66.89
2019-04-14T13:52:56.021Z,66.31
2019-04-14T13:55:24.701Z,67.77
2019-04-14T13:57:53.402Z,66.69
2019-04-14T14:00:23.029Z,68.35
2019-04-14T14:02:51.701Z,70.21
2019-04-14T14:05:20.394Z,70.71
2019-04-14T14:07:49.065Z,70.46
2019-04-14T14:10:18.202Z,68.92
2019-04-14T14:13:06.013Z,69.12
2019-04-14T14:16:12.255Z,69.73
2019-04-14T14:18:52.474Z,66.75
2019-04-14T14:21:45.841Z,70.05
2019-04-14T14:24:51.699Z,71.90
2019-04-14T14:27:20.384Z,71.87
2019-04-14T14:29:49.047Z,72.40
2019-04-14T14:32:24.174Z,72.24
2019-04-14T14:34:52.834Z,74.25
2019-04-14T14:37:21.524Z,72.93
2019-04-14T14:39:50.211Z,72.29
2019-04-14T14:42:18.872Z,72.11
2019-04-14T14:44:52.934Z,73.53
2019-04-14T14:47:24.473Z,74.16
2019-04-14T14:50:11.202Z,75.02
2019-04-14T14:52:40.892Z,75.33
2019-04-14T14:55:09.630Z,76.05
2019-04-14T14:57:38.390Z,77.32
2019-04-14T15:00:13.445Z,77.36
2019-04-14T15:02:42.136Z,77.29
2019-04-14T15:05:10.873Z,78.01
2019-04-14T15:07:39.536Z,77.72
2019-04-14T15:10:08.381Z,78.03
2019-04-14T15:12:37.043Z,79.72
2019-04-14T15:15:06.314Z,79.07
2019-04-14T15:17:35.009Z,79.76
2019-04-14T15:20:03.983Z,79.18
2019-04-14T15:22:32.670Z,78.35
2019-04-14T15:25:01.356Z,79.60
2019-04-14T15:27:30.093Z,79.06
2019-04-14T15:29:58.761Z,79.50
2019-04-14T15:32:27.529Z,79.41
2019-04-14T15:34:57.043Z,78.87
2019-04-14T15:37:25.736Z,80.80
2019-04-14T15:39:54.432Z,78.73
2019-04-14T15:42:23.094Z,78.47
2019-04-14T15:44:51.747Z,79.67
2019-04-14T15:47:20.523Z,78.45
2019-04-14T15:49:49.174Z,76.28
2019-04-14T15:52:17.908Z,76.36
2019-04-14T15:54:46.597Z,76.32
2019-04-14T15:57:33.221Z,77.95
2019-04-14T16:00:12.677Z,77.24
2019-04-14T16:02:46.967Z,75.90
2019-04-14T16:05:22.637Z,76.51
2019-04-14T16:07:58.153Z,76.13
2019-04-14T16:10:45.880Z,76.98
2019-04-14T16:13:36.667Z,77.52
2019-04-14T16:16:30.649Z,77.30
2019-04-14T16:19:04.271Z,79.47
2019-04-14T16:21:32.989Z,80.26
2019-04-14T16:24:01.654Z,82.23
2019-04-14T16:26:39.649Z,81.51
2019-04-14T16:29:31.803Z,82.38
2019-04-14T16:32:20.068Z,82.41
2019-04-14T16:34:54.966Z,80.59
2019-04-14T16:37:23.640Z,78.89
2019-04-14T16:39:52.320Z,81.85
2019-04-14T16:42:21.008Z,80.63
2019-04-14T16:44:49.675Z,81.39
2019-04-14T16:47:18.403Z,81.90
2019-04-14T16:49:47.164Z,82.43
2019-04-14T16:52:33.559Z,81.51
2019-04-14T16:55:14.777Z,82.50
2019-04-14T16:57:56.077Z,83.00
2019-04-14T17:00:29.555Z,83.59
2019-04-14T17:02:58.223Z,83.99
2019-04-14T17:05:26.909Z,84.05
2019-04-14T17:07:55.561Z,84.10
2019-04-14T17:10:24.240Z,83.86
2019-04-14T17:12:52.913Z,83.81
2019-04-14T17:15:36.091Z,83.96
2019-04-14T17:18:17.193Z,84.37
2019-04-14T17:20:54.182Z,84.55
2019-04-14T17:23:34.269Z,85.21
2019-04-14T17:26:07.805Z,84.92
2019-04-14T17:28:54.553Z,85.13
2019-04-14T17:31:45.274Z,85.63
2019-04-14T17:34:17.959Z,85.41
2019-04-14T17:37:11.453Z,85.88
2019-04-14T17:39:45.311Z,85.80
2019-04-14T17:42:26.976Z,86.29
2019-04-14T17:45:27.140Z,86.99
2019-04-14T17:48:00.317Z,87.14
2019-04-14T17:50:47.315Z,86.81
2019-04-14T17:53:34.958Z,87.01
2019-04-14T17:56:09.921Z,86.42
2019-04-14T17:58:48.112Z,86.92
2019-04-14T18:01:29.511Z,87.28
2019-04-14T18:04:01.362Z,87.00
2019-04-14T18:06:37.547Z,87.03
2019-04-14T18:09:20.539Z,87.34
2019-04-14T18:12:04.718Z,87.54
2019-04-14T18:14:44.234Z,87.03
2019-04-14T18:17:22.672Z,87.03
2019-04-14T18:19:55.467Z,87.77
2019-04-14T18:22:24.148Z,87.07
2019-04-14T18:24:52.807Z,87.28
2019-04-14T18:27:21.493Z,87.17
2019-04-14T18:30:06.512Z,87.51
2019-04-14T18:32:40.167Z,87.17
2019-04-14T18:35:16.350Z,87.00
2019-04-14T18:38:16.327Z,86.21
2019-04-14T18:40:55.203Z,86.56
2019-04-14T18:43:35.054Z,86.27
2019-04-14T18:46:28.800Z,86.45
2019-04-14T18:49:02.497Z,85.65
2019-04-14T18:51:41.349Z,85.40
2019-04-14T18:54:23.432Z,86.24
2019-04-14T18:57:11.165Z,85.93
2019-04-14T18:59:45.689Z,86.67
2019-04-14T19:02:16.137Z,87.29
2019-04-14T19:04:44.828Z,87.55
2019-04-14T19:07:13.487Z,87.46
2019-04-14T19:09:42.147Z,86.77
2019-04-14T19:12:28.861Z,87.59
2019-04-14T19:15:05.508Z,87.62
2019-04-14T19:17:46.570Z,87.32
2019-04-14T19:20:16.357Z,87.50
2019-04-14T19:22:45.040Z,87.40
2019-04-14T19:25:13.826Z,87.65
2019-04-14T19:27:42.490Z,87.27
2019-04-14T19:30:11.532Z,86.86
2019-04-14T19:32:40.231Z,86.61
2019-04-14T19:35:08.965Z,86.92
2019-04-14T19:37:37.644Z,87.29
2019-04-14T19:40:06.619Z,87.52
2019-04-14T19:42:35.286Z,87.34
2019-04-14T19:45:04.081Z,87.04
2019-04-14T19:47:32.769Z,86.72
2019-04-14T19:50:01.432Z,85.92
2019-04-14T19:52:30.088Z,85.99
2019-04-14T19:54:58.778Z,86.27
2019-04-14T19:57:27.436Z,86.26
2019-04-14T19:59:56.128Z,86.13
2019-04-14T20:02:24.805Z,86.37
2019-04-14T20:04:53.460Z,85.60
2019-04-14T20:07:22.150Z,86.35
2019-04-14T20:09:50.815Z,86.61
2019-04-14T20:12:19.549Z,86.75
2019-04-14T20:14:48.226Z,86.97
2019-04-14T20:17:42.006Z,86.92
2019-04-14T20:20:21.492Z,86.54
2019-04-14T20:23:08.282Z,86.85
2019-04-14T20:26:03.620Z,86.90
2019-04-14T20:28:46.162Z,86.64
2019-04-14T20:31:46.210Z,86.63
2019-04-14T20:34:14.954Z,86.70
2019-04-14T20:36:43.643Z,86.99
2019-04-14T20:39:15.617Z,87.77
2019-04-14T20:41:44.349Z,87.23
2019-04-14T20:44:13.172Z,86.84
2019-04-14T20:46:41.901Z,87.04
2019-04-14T20:49:10.641Z,87.59
2019-04-14T20:51:39.319Z,87.57
2019-04-14T20:54:08.048Z,87.56
2019-04-14T20:56:36.807Z,87.43
2019-04-14T20:59:05.467Z,87.98
2019-04-14T21:01:35.914Z,87.63
2019-04-14T21:04:17.378Z,87.26
2019-04-14T21:07:11.097Z,87.45
2019-04-14T21:09:44.568Z,87.70
2019-04-14T21:12:21.698Z,88.06
2019-04-14T21:14:54.870Z,87.44
2019-04-14T21:17:44.752Z,87.70
2019-04-14T21:20:24.487Z,87.58
2019-04-14T21:23:07.541Z,87.92
2019-04-14T21:26:00.768Z,87.46
2019-04-14T21:28:29.907Z,87.05
2019-04-14T21:31:07.956Z,88.20
2019-04-14T21:33:44.694Z,88.06
2019-04-14T21:36:21.245Z,88.15
2019-04-14T21:39:11.347Z,88.20
2019-04-14T21:41:40.110Z,87.81
2019-04-14T21:44:08.766Z,88.09
2019-04-14T21:46:37.458Z,87.51
2019-04-14T21:49:06.195Z,87.60
2019-04-14T21:51:57.012Z,87.90
2019-04-14T21:54:25.619Z,87.16
2019-04-14T21:57:12.021Z,87.32
2019-04-14T21:59:56.877Z,87.06
2019-04-14T22:02:43.211Z,87.21
2019-04-14T22:05:21.372Z,87.23
2019-04-14T22:07:59.910Z,87.49
2019-04-14T22:10:38.700Z,87.87
2019-04-14T22:13:07.471Z,87.96
2019-04-14T22:15:36.152Z,88.35
2019-04-14T22:18:04.886Z,88.52
2019-04-14T22:20:33.648Z,88.46
2019-04-14T22:23:03.969Z,88.55
2019-04-14T22:25:32.687Z,88.55
2019-04-14T22:28:01.495Z,88.90
2019-04-14T22:30:30.231Z,89.09
2019-04-14T22:32:58.916Z,89.14
2019-04-14T22:35:27.572Z,89.01
2019-04-14T22:37:56.247Z,89.14
2019-04-14T22:40:24.989Z,89.34
2019-04-14T22:42:53.673Z,89.62
2019-04-14T22:45:22.430Z,89.92
2019-04-14T22:47:51.085Z,89.92
2019-04-14T22:50:19.740Z,90.03
2019-04-14T22:52:48.416Z,89.54
2019-04-14T22:55:17.086Z,89.57
2019-04-14T22:57:45.773Z,89.83
2019-04-14T23:00:31.985Z,89.94
2019-04-14T23:03:07.763Z,89.74
2019-04-14T23:06:01.306Z,89.75
2019-04-14T23:08:35.490Z,89.11
2019-04-14T23:11:13.314Z,88.97
2019-04-14T23:13:50.790Z,88.97
2019-04-14T23:16:47.595Z,88.54
2019-04-14T23:19:22.490Z,88.99
2019-04-14T23:22:02.778Z,89.25
2019-04-14T23:24:35.020Z,89.41
2019-04-14T23:27:03.709Z,89.41
2019-04-14T23:29:32.395Z,89.58
2019-04-14T23:32:01.126Z,89.85
2019-04-14T23:34:29.804Z,90.33
2019-04-14T23:36:58.565Z,90.56
2019-04-14T23:39:27.310Z,90.49
2019-04-14T23:41:55.964Z,90.39
2019-04-14T23:44:24.645Z,90.30
2019-04-14T23:46:53.305Z,90.10
2019-04-14T23:49:22.043Z,90.14
2019-04-14T23:51:50.733Z,90.08
2019-04-14T23:54:19.396Z,90.22
2019-04-14T23:56:48.054Z,89.72
2019-04-14T23:59:17.225Z,89.43
